createdAt,value
2022-09-30T00:01:39.847Z,3.87
2022-09-30T00:04:09.360Z,4.07
2022-09-30T00:06:39.102Z,3.80
2022-09-30T00:09:07.603Z,3.83
2022-09-30T00:11:38.754Z,3.97
2022-09-30T00:14:09.276Z,3.90
2022-09-30T00:16:38.872Z,4.00
2022-09-30T00:19:07.629Z,3.97
2022-09-30T00:21:35.831Z,3.73
2022-09-30T00:24:06.588Z,3.83
2022-09-30T00:26:35.385Z,3.80
2022-09-30T00:29:04.693Z,3.20
2022-09-30T00:31:35.351Z,4.27
2022-09-30T00:34:11.430Z,4.10
2022-09-30T00:36:44.261Z,4.47
2022-09-30T00:39:16.322Z,4.60
2022-09-30T00:41:46.886Z,4.50
2022-09-30T00:44:44.842Z,4.87
2022-09-30T00:47:37.807Z,4.07
2022-09-30T00:50:15.344Z,4.57
2022-09-30T00:52:45.533Z,4.50
2022-09-30T00:55:25.990Z,4.80
2022-09-30T00:57:54.276Z,4.80
2022-09-30T01:00:22.563Z,4.40
2022-09-30T01:02:51.356Z,4.67
2022-09-30T01:05:20.334Z,4.37
2022-09-30T01:07:50.315Z,4.40
2022-09-30T01:10:20.251Z,4.77
2022-09-30T01:12:48.727Z,4.90
2022-09-30T01:15:17.604Z,4.97
2022-09-30T01:17:55.231Z,4.80
2022-09-30T01:21:01.758Z,4.83
2022-09-30T01:24:11.488Z,5.10
2022-09-30T01:27:03.829Z,4.70
2022-09-30T01:30:04.849Z,4.43
2022-09-30T01:32:57.788Z,5.20
2022-09-30T01:35:36.507Z,5.23
2022-09-30T01:38:13.982Z,5.07
2022-09-30T01:40:48.455Z,5.53
2022-09-30T01:43:26.021Z,5.50
2022-09-30T01:46:00.007Z,5.40
2022-09-30T01:48:37.834Z,5.13
2022-09-30T01:51:10.859Z,6.13
2022-09-30T01:53:43.640Z,5.80
2022-09-30T01:56:19.689Z,5.73
2022-09-30T01:58:55.518Z,5.83
2022-09-30T02:01:31.728Z,5.67
2022-09-30T02:04:06.883Z,5.20
2022-09-30T02:06:40.471Z,5.37
2022-09-30T02:09:14.598Z,5.33
2022-09-30T02:11:43.842Z,6.53
2022-09-30T02:14:17.827Z,5.90
2022-09-30T02:16:50.928Z,6.13
2022-09-30T02:19:25.527Z,6.53
2022-09-30T02:21:58.058Z,5.70
2022-09-30T02:24:29.513Z,5.50
2022-09-30T02:27:00.628Z,6.27
2022-09-30T02:29:32.734Z,6.10
2022-09-30T02:32:07.323Z,6.00
2022-09-30T02:34:41.821Z,6.53
2022-09-30T02:37:17.623Z,6.50
2022-09-30T02:39:52.650Z,6.53
2022-09-30T02:42:26.759Z,6.47
2022-09-30T02:44:57.646Z,6.43
2022-09-30T02:47:32.149Z,6.93
2022-09-30T02:50:07.598Z,6.57
2022-09-30T02:52:46.211Z,6.83
2022-09-30T02:55:21.098Z,6.53
2022-09-30T02:58:01.093Z,5.90
2022-09-30T03:00:29.966Z,6.83
2022-09-30T03:03:01.317Z,6.23
2022-09-30T03:05:30.803Z,6.90
2022-09-30T03:07:59.111Z,6.60
2022-09-30T03:10:27.256Z,6.90
2022-09-30T03:13:11.759Z,6.30
2022-09-30T03:15:53.067Z,6.63
2022-09-30T03:18:39.060Z,6.67
2022-09-30T03:21:23.763Z,6.57
2022-09-30T03:24:24.482Z,6.77
2022-09-30T03:27:04.420Z,6.43
2022-09-30T03:29:43.524Z,6.47
2022-09-30T03:32:23.976Z,6.53
2022-09-30T03:35:04.646Z,6.67
2022-09-30T03:37:48.069Z,6.47
2022-09-30T03:40:24.587Z,6.90
2022-09-30T03:42:57.328Z,6.60
2022-09-30T03:45:32.024Z,7.07
2022-09-30T03:48:05.874Z,6.50
2022-09-30T03:50:36.591Z,6.30
2022-09-30T03:53:16.633Z,6.90
2022-09-30T03:55:48.973Z,6.73
2022-09-30T03:58:17.588Z,6.53
2022-09-30T04:00:50.209Z,7.27
2022-09-30T04:03:19.715Z,6.77
2022-09-30T04:05:48.520Z,6.60
2022-09-30T04:08:18.156Z,6.70
2022-09-30T04:10:46.600Z,6.57
2022-09-30T04:13:14.815Z,6.50
2022-09-30T04:15:43.480Z,6.67
2022-09-30T04:18:42.460Z,5.97
2022-09-30T04:21:13.054Z,7.07
2022-09-30T04:23:58.433Z,6.70
2022-09-30T04:26:31.830Z,6.63
2022-09-30T04:29:33.614Z,6.60
2022-09-30T04:32:34.331Z,6.27
2022-09-30T04:35:09.003Z,6.00
2022-09-30T04:37:37.262Z,6.80
2022-09-30T09:05:29.641Z,15.63
2022-09-30T09:08:05.989Z,15.30
2022-09-30T09:10:43.714Z,14.60
2022-09-30T09:13:37.655Z,13.97
2022-09-30T09:16:11.991Z,14.80
2022-09-30T09:18:47.969Z,14.13
2022-09-30T09:21:33.477Z,14.27
2022-09-30T09:24:04.119Z,15.37
2022-09-30T09:26:37.044Z,15.57
2022-09-30T09:29:17.203Z,15.83
2022-09-30T09:31:45.540Z,14.73
2022-09-30T09:34:14.174Z,15.20
2022-09-30T09:36:53.282Z,15.23
2022-09-30T09:39:51.501Z,14.57
2022-09-30T09:42:36.854Z,13.90
2022-09-30T09:45:10.537Z,14.80
2022-09-30T09:47:38.744Z,14.57
2022-09-30T09:50:17.765Z,14.67
2022-09-30T09:53:03.182Z,15.63
2022-09-30T09:55:31.199Z,14.33
2022-09-30T09:58:11.284Z,14.33
2022-09-30T10:00:56.820Z,15.30
2022-09-30T10:03:28.174Z,17.43
2022-09-30T10:06:06.589Z,17.77
2022-09-30T10:08:38.789Z,18.00
2022-09-30T10:11:08.596Z,18.07
2022-09-30T10:13:44.328Z,17.60
2022-09-30T10:16:30.062Z,16.83
2022-09-30T10:18:58.662Z,17.47
2022-09-30T10:21:28.295Z,16.53
2022-09-30T10:23:59.961Z,16.20
2022-09-30T10:26:29.497Z,16.93
2022-09-30T10:29:00.939Z,16.93
2022-09-30T10:31:31.940Z,16.43
2022-09-30T10:34:05.373Z,16.23
2022-09-30T10:36:36.607Z,15.17
2022-09-30T10:39:08.784Z,13.20
2022-09-30T10:41:39.379Z,12.23
2022-09-30T10:44:14.875Z,13.63
2022-09-30T10:46:44.854Z,12.90
2022-09-30T10:49:28.500Z,12.07
2022-09-30T10:51:57.819Z,12.40
2022-09-30T10:54:47.943Z,12.87
2022-09-30T10:57:17.562Z,12.07
2022-09-30T10:59:46.914Z,12.63
2022-09-30T11:02:24.806Z,12.00
2022-09-30T11:05:01.276Z,11.90
2022-09-30T11:07:41.063Z,12.60
2022-09-30T11:10:32.981Z,11.90
2022-09-30T11:13:09.457Z,11.03
2022-09-30T11:15:46.721Z,12.33
2022-09-30T11:18:22.946Z,10.60
2022-09-30T11:29:46.791Z,8.83
2022-09-30T11:32:52.432Z,10.07
2022-09-30T11:35:45.811Z,9.67
2022-09-30T11:38:57.481Z,9.17
2022-09-30T11:41:35.240Z,8.90
2022-09-30T11:44:30.541Z,9.07
2022-09-30T11:47:14.962Z,8.83
2022-09-30T11:50:11.319Z,8.87
2022-09-30T11:53:07.792Z,9.17
2022-09-30T11:56:03.691Z,8.20
2022-09-30T11:58:45.020Z,8.10
2022-09-30T12:01:26.916Z,7.93
2022-09-30T12:04:06.738Z,7.10
2022-09-30T12:06:54.334Z,7.37
2022-09-30T12:09:44.320Z,7.53
2022-09-30T12:12:32.851Z,8.10
2022-09-30T12:18:41.749Z,6.90
2022-09-30T12:21:21.371Z,6.77
2022-09-30T12:23:56.989Z,6.70
2022-09-30T12:26:31.209Z,6.77
2022-09-30T12:29:24.994Z,7.60
2022-09-30T12:32:32.174Z,7.00
2022-09-30T12:35:33.421Z,6.43
2022-09-30T12:38:24.776Z,5.90
2022-09-30T12:41:12.252Z,6.03
2022-09-30T12:44:09.651Z,6.10
2022-09-30T12:46:54.047Z,5.80
2022-09-30T12:49:29.305Z,5.73
2022-09-30T12:52:09.188Z,5.27
2022-09-30T12:54:41.813Z,5.07
2022-09-30T12:57:11.270Z,5.60
2022-09-30T12:59:48.677Z,4.70
2022-09-30T13:02:34.624Z,5.17
2022-09-30T13:05:40.221Z,4.27
2022-09-30T13:08:26.117Z,4.67
2022-09-30T13:10:59.460Z,4.03
2022-09-30T13:13:32.384Z,4.60
2022-09-30T13:16:06.814Z,4.03
2022-09-30T13:19:03.786Z,4.10
2022-09-30T13:21:32.482Z,4.33
2022-09-30T13:24:05.809Z,4.97
2022-09-30T13:26:40.222Z,4.30
2022-09-30T13:29:48.569Z,4.07
2022-09-30T13:32:34.263Z,3.90
2022-09-30T13:35:03.109Z,3.30
2022-09-30T13:37:44.722Z,4.67
2022-09-30T13:40:43.599Z,4.90
2022-09-30T13:43:22.159Z,5.00
2022-09-30T13:45:54.594Z,5.03
2022-09-30T13:48:31.250Z,4.70
2022-09-30T13:51:02.010Z,4.30
2022-09-30T13:53:34.893Z,4.57
2022-09-30T13:56:08.569Z,4.00
2022-09-30T13:58:53.623Z,4.00
2022-09-30T14:01:47.269Z,4.27
2022-09-30T14:04:37.581Z,4.00
2022-09-30T14:07:14.253Z,4.90
2022-09-30T14:09:56.301Z,4.73
2022-09-30T14:13:03.184Z,3.93
2022-09-30T14:15:50.893Z,5.10
2022-09-30T14:18:42.586Z,4.20
2022-09-30T14:21:27.107Z,4.90
2022-09-30T14:24:04.326Z,4.93
2022-09-30T14:26:48.651Z,4.50
2022-09-30T14:29:27.322Z,4.27
2022-09-30T14:31:56.697Z,4.20
2022-09-30T14:34:29.673Z,3.87
2022-09-30T14:36:58.115Z,4.03
2022-09-30T14:39:32.068Z,4.53
2022-09-30T14:42:05.398Z,5.00
2022-09-30T14:44:36.982Z,4.50
2022-09-30T14:47:06.670Z,4.27
2022-09-30T14:49:38.737Z,4.70
2022-09-30T14:52:07.675Z,4.17
2022-09-30T14:54:35.912Z,4.10
2022-09-30T14:57:04.553Z,3.20
2022-09-30T14:59:42.104Z,3.40
2022-09-30T15:02:18.923Z,4.77
2022-09-30T15:04:51.607Z,5.33
2022-09-30T15:07:22.516Z,4.70
2022-09-30T15:09:54.331Z,4.67
2022-09-30T15:12:26.921Z,4.50
2022-09-30T15:14:58.750Z,5.10
2022-09-30T15:17:30.046Z,4.10
2022-09-30T15:20:00.037Z,4.37
2022-09-30T15:22:31.250Z,3.70
2022-09-30T15:25:01.219Z,3.43
2022-09-30T15:27:45.057Z,4.10
2022-09-30T15:30:29.413Z,4.47
2022-09-30T15:33:03.152Z,4.27
2022-09-30T15:35:34.659Z,3.63
2022-09-30T15:38:17.638Z,3.00
2022-09-30T15:40:50.638Z,3.20
2022-09-30T15:43:34.442Z,3.13
2022-09-30T15:46:31.025Z,3.00
2022-09-30T15:49:01.763Z,2.53
2022-09-30T15:51:37.886Z,2.43
2022-09-30T15:54:31.945Z,1.80
2022-09-30T15:57:06.478Z,2.60
2022-09-30T16:00:00.243Z,1.70
2022-09-30T16:02:31.482Z,1.80
2022-09-30T16:05:02.145Z,3.10
2022-09-30T16:07:32.566Z,2.10
2022-09-30T16:10:01.130Z,3.27
2022-09-30T16:12:33.736Z,2.20
2022-09-30T16:15:08.553Z,1.77
2022-09-30T16:17:40.309Z,1.63
2022-09-30T16:20:23.847Z,1.80
2022-09-30T16:22:55.077Z,1.70
2022-09-30T16:25:26.616Z,1.70
2022-09-30T16:27:59.406Z,1.77
2022-09-30T16:30:32.260Z,2.10
2022-09-30T16:33:10.139Z,1.90
2022-09-30T16:35:57.680Z,2.30
2022-09-30T16:38:26.123Z,1.90
2022-09-30T16:40:54.755Z,2.10
2022-09-30T16:43:24.855Z,1.90
2022-09-30T16:45:53.209Z,2.83
2022-09-30T16:48:26.201Z,2.30
2022-09-30T16:50:59.554Z,2.37
2022-09-30T16:53:27.803Z,1.70
2022-09-30T16:55:57.184Z,1.80
2022-09-30T16:58:25.566Z,1.90
2022-09-30T17:00:53.916Z,2.10
2022-09-30T17:03:22.739Z,2.40
2022-09-30T17:05:53.001Z,3.47
2022-09-30T17:08:22.571Z,3.87
2022-09-30T17:10:51.193Z,3.40
2022-09-30T17:13:20.094Z,2.97
2022-09-30T17:15:52.457Z,2.43
2022-09-30T17:18:20.860Z,2.90
2022-09-30T17:20:52.826Z,2.13
2022-09-30T17:23:24.474Z,1.50
2022-09-30T17:25:53.774Z,2.03
2022-09-30T17:28:22.628Z,3.50
2022-09-30T17:30:50.675Z,3.67
2022-09-30T17:33:19.840Z,4.23
2022-09-30T17:36:02.233Z,3.00
2022-09-30T17:38:32.445Z,2.60
2022-09-30T17:41:18.446Z,2.40
2022-09-30T17:43:46.756Z,2.23
2022-09-30T17:46:16.121Z,2.27
2022-09-30T17:48:44.111Z,2.17
2022-09-30T17:51:12.264Z,2.60
2022-09-30T17:53:42.180Z,2.67
2022-09-30T17:56:17.157Z,2.57
2022-09-30T17:58:47.966Z,2.10
2022-09-30T18:01:17.588Z,2.20
2022-09-30T18:03:53.178Z,2.60
2022-09-30T18:06:21.631Z,2.50
2022-09-30T18:08:54.413Z,2.07
2022-09-30T18:11:29.453Z,1.83
2022-09-30T18:14:02.826Z,2.13
2022-09-30T18:16:33.871Z,2.20
2022-09-30T18:19:04.300Z,2.57
2022-09-30T18:21:33.729Z,3.10
2022-09-30T18:24:06.721Z,3.43
2022-09-30T18:26:36.020Z,3.03
2022-09-30T18:29:08.320Z,3.10
2022-09-30T18:31:48.106Z,2.30
2022-09-30T18:34:36.047Z,2.37
2022-09-30T18:37:07.246Z,2.90
2022-09-30T18:39:41.910Z,2.80
2022-09-30T18:42:39.613Z,2.83
2022-09-30T18:45:25.476Z,2.60
2022-09-30T18:47:59.188Z,2.80
2022-09-30T18:51:23.773Z,2.50
